TimeEST,TemperatureF,Dew PointF,Humidity,Sea Level PressureIn,VisibilityMPH,Wind Direction,Wind SpeedMPH,Gust SpeedMPH,PrecipitationIn,Events,Conditions,WindDirDegrees,DateUTC
12:13 AM,28.2,21.2,75,30.49,10.0,SSE,9.2,-,N/A,,Clear,160,2013-11-30 05:13:00
12:32 AM,28.0,21.0,75,30.49,10.0,SSE,8.1,-,N/A,,Clear,160,2013-11-30 05:32:00
12:53 AM,27.9,21.0,75,30.48,10.0,SSE,6.9,-,N/A,,Scattered Clouds,160,2013-11-30 05:53:00
1:13 AM,28.4,21.2,74,30.47,10.0,SSE,8.1,-,N/A,,Mostly Cloudy,150,2013-11-30 06:13:00
1:32 AM,28.4,21.0,74,30.46,10.0,SSE,6.9,-,N/A,,Mostly Cloudy,150,2013-11-30 06:32:00
1:53 AM,28.8,21.0,73,30.45,10.0,SSE,11.5,-,N/A,,Mostly Cloudy,150,2013-11-30 06:53:00
2:13 AM,29.3,20.8,71,30.45,10.0,SSE,9.2,-,N/A,,Mostly Cloudy,150,2013-11-30 07:13:00
2:32 AM,29.5,20.3,69,30.45,10.0,SSE,9.2,-,N/A,,Overcast,160,2013-11-30 07:32:00
2:53 AM,29.3,20.3,69,30.44,10.0,SSE,9.2,-,N/A,,Overcast,160,2013-11-30 07:53:00
3:13 AM,29.8,20.3,68,30.44,10.0,SSE,8.1,-,N/A,,Overcast,160,2013-11-30 08:13:00
3:32 AM,29.8,20.3,68,30.43,10.0,SSE,8.1,-,N/A,,Mostly Cloudy,150,2013-11-30 08:32:00
3:53 AM,29.8,20.3,68,30.41,10.0,SSE,6.9,-,N/A,,Mostly Cloudy,150,2013-11-30 08:53:00
4:13 AM,29.8,20.7,69,30.41,10.0,SSE,9.2,-,N/A,,Overcast,160,2013-11-30 09:13:00
4:32 AM,29.8,20.7,69,30.41,10.0,South,10.4,-,N/A,,Overcast,170,2013-11-30 09:32:00
4:53 AM,29.8,20.8,69,30.40,10.0,SSE,10.4,-,N/A,,Overcast,160,2013-11-30 09:53:00
5:12 AM,29.7,20.8,70,30.40,10.0,South,9.2,-,N/A,,Scattered Clouds,170,2013-11-30 10:12:00
5:32 AM,29.3,21.0,71,30.38,10.0,SSE,11.5,-,N/A,,Mostly Cloudy,160,2013-11-30 10:32:00
5:53 AM,29.3,20.8,71,30.38,10.0,SSE,9.2,-,N/A,,Mostly Cloudy,150,2013-11-30 10:53:00
6:13 AM,29.1,21.0,72,30.37,10.0,SSE,10.4,-,N/A,,Scattered Clouds,160,2013-11-30 11:13:00
6:32 AM,28.9,21.0,72,30.37,10.0,South,6.9,-,N/A,,Scattered Clouds,170,2013-11-30 11:32:00
6:53 AM,28.9,21.0,72,30.37,10.0,South,8.1,-,N/A,,Mostly Cloudy,170,2013-11-30 11:53:00
7:13 AM,28.4,21.0,74,30.36,10.0,SSE,8.1,-,N/A,,Scattered Clouds,160,2013-11-30 12:13:00
7:32 AM,28.2,21.2,75,30.36,10.0,South,5.8,-,N/A,,Clear,170,2013-11-30 12:32:00
7:53 AM,28.4,21.2,74,30.36,10.0,South,6.9,-,N/A,,Clear,170,2013-11-30 12:53:00
8:13 AM,28.6,21.6,75,30.35,10.0,SSE,6.9,-,N/A,,Clear,160,2013-11-30 13:13:00
8:32 AM,29.5,21.9,73,30.34,10.0,South,6.9,-,N/A,,Clear,170,2013-11-30 13:32:00
8:53 AM,30.4,22.1,71,30.34,10.0,South,8.1,-,N/A,,Clear,170,2013-11-30 13:53:00
9:13 AM,31.3,22.3,69,30.33,10.0,South,10.4,-,N/A,,Clear,170,2013-11-30 14:13:00
9:32 AM,32.0,23.0,69,30.31,10.0,South,10.4,-,N/A,,Clear,170,2013-11-30 14:32:00
9:53 AM,33.3,23.0,66,30.30,10.0,South,8.1,-,N/A,,Clear,170,2013-11-30 14:53:00
10:12 AM,33.8,23.4,66,30.30,10.0,South,6.9,-,N/A,,Clear,170,2013-11-30 15:12:00
10:33 AM,35.2,23.5,62,30.29,10.0,South,8.1,-,N/A,,Clear,170,2013-11-30 15:33:00
10:53 AM,35.8,23.5,61,30.28,10.0,South,6.9,-,N/A,,Clear,180,2013-11-30 15:53:00
11:12 AM,37.2,24.3,60,30.27,10.0,South,6.9,-,N/A,,Clear,170,2013-11-30 16:12:00
11:33 AM,39.2,23.9,54,30.26,10.0,South,4.6,-,N/A,,Clear,190,2013-11-30 16:33:00
11:53 AM,40.1,24.1,53,30.25,10.0,South,6.9,-,N/A,,Clear,190,2013-11-30 16:53:00
12:12 PM,41.5,24.8,51,30.23,10.0,South,6.9,-,N/A,,Clear,190,2013-11-30 17:12:00
12:33 PM,42.1,24.8,50,30.21,10.0,SSW,5.8,-,N/A,,Clear,200,2013-11-30 17:33:00
12:53 PM,43.3,25.0,48,30.21,10.0,SSW,4.6,-,N/A,,Clear,200,2013-11-30 17:53:00
1:13 PM,43.9,25.2,48,30.18,10.0,SSW,8.1,-,N/A,,Clear,200,2013-11-30 18:13:00
1:33 PM,45.1,26.1,47,30.17,10.0,SSW,12.7,16.1,N/A,,Clear,210,2013-11-30 18:33:00
1:52 PM,45.1,25.5,46,30.16,10.0,SSW,11.5,17.3,N/A,,Clear,200,2013-11-30 18:52:00
2:13 PM,45.5,25.9,46,30.15,10.0,SSW,5.8,-,N/A,,Clear,200,2013-11-30 19:13:00
2:33 PM,46.4,26.2,45,30.14,10.0,SSW,5.8,-,N/A,,Clear,200,2013-11-30 19:33:00
2:52 PM,46.8,26.6,45,30.13,10.0,SW,10.4,17.3,N/A,,Clear,220,2013-11-30 19:52:00
3:13 PM,46.4,26.4,46,30.12,10.0,SSW,8.1,18.4,N/A,,Clear,210,2013-11-30 20:13:00
3:33 PM,46.6,26.6,46,30.12,10.0,SSW,5.8,-,N/A,,Clear,210,2013-11-30 20:33:00
3:52 PM,46.2,26.8,47,30.11,10.0,SW,5.8,-,N/A,,Clear,220,2013-11-30 20:52:00
4:13 PM,45.5,27.0,48,30.11,10.0,SSW,4.6,-,N/A,,Clear,210,2013-11-30 21:13:00
4:33 PM,44.2,27.3,51,30.11,10.0,Calm,Calm,-,N/A,,Clear,0,2013-11-30 21:33:00
4:52 PM,42.8,27.1,54,30.11,10.0,Calm,Calm,-,N/A,,Clear,0,2013-11-30 21:52:00
5:13 PM,41.5,27.0,56,30.11,10.0,Calm,Calm,-,N/A,,Clear,0,2013-11-30 22:13:00
5:32 PM,38.7,27.1,63,30.10,10.0,Calm,Calm,-,N/A,,Clear,0,2013-11-30 22:32:00
5:53 PM,36.7,27.0,68,30.10,10.0,Calm,Calm,-,N/A,,Clear,0,2013-11-30 22:53:00
6:13 PM,37.8,27.0,65,30.10,10.0,Calm,Calm,-,N/A,,Clear,0,2013-11-30 23:13:00
6:32 PM,38.5,27.0,63,30.10,10.0,Calm,Calm,-,N/A,,Clear,0,2013-11-30 23:32:00
6:53 PM,37.9,27.0,65,30.10,10.0,Calm,Calm,-,N/A,,Clear,0,2013-11-30 23:53:00
7:13 PM,37.6,27.1,66,30.10,10.0,Calm,Calm,-,N/A,,Clear,0,2013-12-01 00:13:00
7:32 PM,36.7,27.0,68,30.09,10.0,Calm,Calm,-,N/A,,Clear,0,2013-12-01 00:32:00
7:53 PM,36.5,27.1,69,30.09,10.0,Calm,Calm,-,N/A,,Clear,0,2013-12-01 00:53:00
8:13 PM,36.7,27.1,68,30.08,10.0,Calm,Calm,-,N/A,,Clear,0,2013-12-01 01:13:00
8:32 PM,36.9,27.3,68,30.08,10.0,Calm,Calm,-,N/A,,Clear,0,2013-12-01 01:32:00
8:53 PM,37.6,27.5,67,30.08,10.0,Calm,Calm,-,N/A,,Clear,0,2013-12-01 01:53:00
9:13 PM,37.8,27.5,67,30.08,10.0,South,3.5,-,N/A,,Clear,190,2013-12-01 02:13:00
9:32 PM,38.1,27.5,66,30.08,10.0,South,3.5,-,N/A,,Clear,190,2013-12-01 02:32:00
9:53 PM,37.4,27.5,67,30.07,10.0,South,3.5,-,N/A,,Scattered Clouds,180,2013-12-01 02:53:00
10:12 PM,37.8,27.9,67,30.07,10.0,South,3.5,-,N/A,,Overcast,190,2013-12-01 03:12:00
10:33 PM,38.3,27.7,66,30.07,10.0,South,3.5,-,N/A,,Overcast,190,2013-12-01 03:33:00
10:53 PM,39.0,27.5,63,30.07,10.0,SSW,4.6,-,N/A,,Overcast,210,2013-12-01 03:53:00
11:12 PM,39.9,27.9,62,30.07,10.0,SW,4.6,-,N/A,,Overcast,220,2013-12-01 04:12:00
11:33 PM,40.5,27.5,60,30.07,10.0,SW,5.8,-,N/A,,Overcast,230,2013-12-01 04:33:00
11:53 PM,40.1,27.5,61,30.07,10.0,SW,5.8,-,N/A,,Overcast,220,2013-12-01 04:53:00